createdAt,value
2016-12-23T00:00:16.925Z,5.56
2016-12-23T00:01:16.914Z,5.53
2016-12-23T00:02:16.899Z,5.61
2016-12-23T00:03:16.890Z,5.51
2016-12-23T00:04:16.878Z,5.64
2016-12-23T00:05:16.864Z,5.53
2016-12-23T00:06:16.856Z,5.57
2016-12-23T00:07:16.841Z,5.51
2016-12-23T00:08:16.835Z,5.51
2016-12-23T00:09:16.817Z,5.54
2016-12-23T00:10:16.808Z,5.6
2016-12-23T00:11:16.795Z,5.57
2016-12-23T00:12:16.781Z,5.63
2016-12-23T00:13:16.775Z,5.61
2016-12-23T00:14:16.790Z,5.56
2016-12-23T00:15:16.746Z,5.6
2016-12-23T00:16:16.757Z,5.57
2016-12-23T00:17:16.724Z,5.58
2016-12-23T00:18:16.713Z,5.63
2016-12-23T00:19:16.698Z,5.6
2016-12-23T00:20:16.697Z,5.53
2016-12-23T00:21:16.674Z,5.65
2016-12-23T00:22:16.665Z,5.6
2016-12-23T00:23:16.655Z,5.64
2016-12-23T00:24:16.642Z,5.63
2016-12-23T00:25:16.633Z,5.58
2016-12-23T00:26:16.616Z,5.61
2016-12-23T00:27:16.611Z,5.67
2016-12-23T00:28:16.626Z,5.57
2016-12-23T00:29:16.586Z,5.58
2016-12-23T00:30:16.568Z,5.63
2016-12-23T00:31:16.559Z,5.56
2016-12-23T00:32:16.545Z,5.6
2016-12-23T00:33:16.535Z,5.61
2016-12-23T00:34:16.522Z,5.58
2016-12-23T00:35:16.508Z,5.58
2016-12-23T00:36:16.500Z,5.51
2016-12-23T00:37:16.488Z,5.56
2016-12-23T00:38:16.477Z,5.6
2016-12-23T00:39:16.461Z,5.61
2016-12-23T00:40:16.449Z,5.56
2016-12-23T00:41:16.439Z,5.56
2016-12-23T00:42:16.429Z,5.49
2016-12-23T00:43:16.415Z,5.54
2016-12-23T00:44:16.405Z,5.51
2016-12-23T00:45:16.397Z,5.6
2016-12-23T00:46:16.378Z,5.56
2016-12-23T00:47:16.368Z,5.54
2016-12-23T00:48:16.356Z,5.56
2016-12-23T00:49:16.349Z,5.49
2016-12-23T00:50:16.334Z,5.48
2016-12-23T00:51:16.321Z,5.46
2016-12-23T00:52:16.306Z,5.49
2016-12-23T00:53:16.294Z,5.53
2016-12-23T00:54:16.286Z,5.4
2016-12-23T00:55:16.277Z,5.51
2016-12-23T00:56:16.263Z,5.46
2016-12-23T00:57:16.248Z,5.45
2016-12-23T00:58:16.237Z,5.45
2016-12-23T00:59:16.223Z,5.43
2016-12-23T01:00:16.212Z,5.36
2016-12-23T01:01:16.199Z,5.43
2016-12-23T01:02:16.190Z,5.43
2016-12-23T01:03:16.178Z,5.46
2016-12-23T01:04:16.167Z,5.42
2016-12-23T01:05:16.155Z,5.42
2016-12-23T01:06:16.144Z,5.54
2016-12-23T01:07:16.125Z,5.46
2016-12-23T01:08:16.115Z,5.43
2016-12-23T01:09:16.106Z,5.43
2016-12-23T01:10:16.093Z,5.46
2016-12-23T01:11:16.081Z,5.42
2016-12-23T01:12:16.068Z,5.53
2016-12-23T01:13:16.057Z,5.42
2016-12-23T01:14:16.043Z,5.42
2016-12-23T01:15:16.033Z,5.51
2016-12-23T01:16:16.022Z,5.56
2016-12-23T01:17:16.009Z,5.54
2016-12-23T01:18:15.995Z,5.45
2016-12-23T01:19:15.985Z,5.43
2016-12-23T01:20:15.980Z,5.56
2016-12-23T01:21:16.164Z,5.4
2016-12-23T01:22:15.950Z,5.46
2016-12-23T01:23:15.937Z,5.43
2016-12-23T01:24:15.933Z,5.54
2016-12-23T01:25:15.912Z,5.48
2016-12-23T01:26:15.902Z,5.4
2016-12-23T01:27:15.892Z,5.42
2016-12-23T01:28:15.873Z,5.43
2016-12-23T01:29:15.868Z,5.45
2016-12-23T01:30:15.853Z,5.45
2016-12-23T01:31:15.848Z,5.45
2016-12-23T01:32:15.833Z,5.51
2016-12-23T01:33:15.816Z,5.38
2016-12-23T01:34:15.805Z,5.4
2016-12-23T01:35:15.792Z,5.43
2016-12-23T01:36:15.783Z,5.39
2016-12-23T01:37:15.771Z,5.43
2016-12-23T01:38:15.757Z,5.45
2016-12-23T01:39:15.749Z,5.43
2016-12-23T01:40:15.732Z,5.43
2016-12-23T01:41:15.717Z,5.46
2016-12-23T01:42:15.708Z,5.56
2016-12-23T01:43:15.696Z,5.51
2016-12-23T01:44:15.684Z,5.46
2016-12-23T01:45:15.976Z,5.45
2016-12-23T01:46:15.662Z,5.51
2016-12-23T01:47:15.647Z,5.51
2016-12-23T01:48:15.636Z,5.58
2016-12-23T01:49:15.633Z,5.48
2016-12-23T01:50:15.614Z,5.53
2016-12-23T01:51:15.601Z,5.58
2016-12-23T01:52:15.592Z,5.61
2016-12-23T01:53:15.576Z,5.54
2016-12-23T01:54:15.566Z,5.58
2016-12-23T01:55:15.557Z,5.48
2016-12-23T01:56:15.538Z,5.51
2016-12-23T01:57:15.533Z,5.57
2016-12-23T01:58:15.518Z,5.54
2016-12-23T01:59:15.531Z,5.58
2016-12-23T02:00:15.492Z,5.56
2016-12-23T02:01:15.483Z,5.49
2016-12-23T02:02:15.468Z,5.43
2016-12-23T02:03:15.454Z,5.48
2016-12-23T02:04:15.443Z,5.6
2016-12-23T02:05:15.437Z,5.57
2016-12-23T02:06:15.420Z,5.48
2016-12-23T02:07:15.411Z,5.58
2016-12-23T02:08:15.423Z,5.6
2016-12-23T02:09:15.383Z,5.58
2016-12-23T02:10:15.372Z,5.58
2016-12-23T02:11:15.362Z,5.61
2016-12-23T02:12:15.651Z,5.63
2016-12-23T02:13:15.340Z,5.58
2016-12-23T02:14:15.325Z,5.57
2016-12-23T02:15:15.312Z,5.58
2016-12-23T02:16:15.299Z,5.57
2016-12-23T02:17:15.290Z,5.6
2016-12-23T02:18:15.276Z,5.6
2016-12-23T02:19:15.266Z,5.54
2016-12-23T02:20:15.252Z,5.51
2016-12-23T02:21:15.547Z,5.54
2016-12-23T02:22:15.230Z,5.56
2016-12-23T02:23:15.214Z,5.46
2016-12-23T02:24:15.204Z,5.43
2016-12-23T02:25:15.194Z,5.43
2016-12-23T02:26:15.488Z,5.35
2016-12-23T02:27:15.168Z,5.33
2016-12-23T02:28:15.156Z,5.38
2016-12-23T02:29:15.146Z,5.4
2016-12-23T02:30:15.132Z,5.33
2016-12-23T02:31:15.118Z,5.35
2016-12-23T02:32:15.109Z,5.36
2016-12-23T02:33:15.097Z,5.3
2016-12-23T02:34:15.084Z,5.27
2016-12-23T02:35:15.070Z,5.25
2016-12-23T02:36:15.363Z,5.24
2016-12-23T02:37:15.049Z,5.27
2016-12-23T02:38:15.037Z,5.27
2016-12-23T02:39:15.027Z,5.3
2016-12-23T02:40:15.012Z,5.24
2016-12-23T02:41:14.998Z,5.3
2016-12-23T02:42:14.986Z,5.35
2016-12-23T02:43:14.995Z,5.31
2016-12-23T02:44:14.963Z,5.3
2016-12-23T02:45:14.974Z,5.27
2016-12-23T02:46:14.937Z,5.28
2016-12-23T02:47:14.927Z,5.28
2016-12-23T02:48:14.915Z,5.3
2016-12-23T02:49:14.903Z,5.38
2016-12-23T02:50:14.892Z,5.36
2016-12-23T02:51:14.877Z,5.3
2016-12-23T02:52:14.870Z,5.28
2016-12-23T02:53:14.853Z,5.3
2016-12-23T02:54:14.842Z,5.27
2016-12-23T02:55:14.839Z,5.33
2016-12-23T02:56:14.819Z,5.38
2016-12-23T02:57:14.806Z,5.33
2016-12-23T02:58:14.796Z,5.36
2016-12-23T02:59:15.087Z,5.35
2016-12-23T03:00:14.771Z,5.31
2016-12-23T03:01:14.758Z,5.39
2016-12-23T03:02:14.747Z,5.35
2016-12-23T03:03:14.736Z,5.46
2016-12-23T03:04:14.724Z,5.4
2016-12-23T03:05:14.710Z,5.48
2016-12-23T03:06:14.703Z,5.46
2016-12-23T03:07:14.685Z,5.46
2016-12-23T03:08:14.673Z,5.49
2016-12-23T03:09:14.662Z,5.51
2016-12-23T03:10:14.652Z,5.58
2016-12-23T03:11:14.639Z,5.46
2016-12-23T03:12:14.626Z,5.53
2016-12-23T03:13:14.619Z,5.56
2016-12-23T03:14:14.601Z,5.53
2016-12-23T03:15:14.593Z,5.46
2016-12-23T03:16:14.579Z,5.56
2016-12-23T03:17:14.596Z,5.51
2016-12-23T03:18:14.555Z,5.4
2016-12-23T03:19:14.540Z,5.45
2016-12-23T03:20:14.535Z,5.53
2016-12-23T03:21:14.522Z,5.51
2016-12-23T03:22:14.504Z,5.43
2016-12-23T03:23:14.503Z,5.56
2016-12-23T03:24:14.481Z,5.49
2016-12-23T03:25:14.472Z,5.54
2016-12-23T03:26:14.456Z,5.45
2016-12-23T03:27:14.447Z,5.53
2016-12-23T03:28:14.433Z,5.49
2016-12-23T03:29:14.423Z,5.42
2016-12-23T03:30:14.409Z,5.49
2016-12-23T03:31:14.400Z,5.53
2016-12-23T03:32:14.388Z,5.45
2016-12-23T03:33:14.373Z,5.54
2016-12-23T03:34:14.361Z,5.56
2016-12-23T03:35:14.354Z,5.63
2016-12-23T03:36:14.337Z,5.57
2016-12-23T03:37:14.327Z,5.51
2016-12-23T03:38:14.316Z,5.64
2016-12-23T03:39:14.304Z,5.58
2016-12-23T03:40:14.289Z,5.58
2016-12-23T03:41:14.280Z,5.61
2016-12-23T03:42:14.271Z,5.67
2016-12-23T03:43:14.256Z,5.65
2016-12-23T03:44:14.241Z,5.64
2016-12-23T03:45:14.231Z,5.58
2016-12-23T03:46:14.221Z,5.6
2016-12-23T03:47:14.205Z,5.63
2016-12-23T03:48:14.198Z,5.57
2016-12-23T03:49:14.491Z,5.58
2016-12-23T03:50:14.174Z,5.6
2016-12-23T03:51:14.158Z,5.6
2016-12-23T03:52:14.154Z,5.53
2016-12-23T03:53:14.137Z,5.68
2016-12-23T03:54:14.125Z,5.56
2016-12-23T03:55:14.115Z,5.51
2016-12-23T03:56:14.104Z,5.58
2016-12-23T03:57:14.088Z,5.57
2016-12-23T03:58:14.079Z,5.6
2016-12-23T03:59:14.063Z,5.54
2016-12-23T04:00:14.056Z,5.6
2016-12-23T04:01:14.041Z,5.54
2016-12-23T04:02:14.030Z,5.58
2016-12-23T04:03:14.015Z,5.63
2016-12-23T04:04:14.321Z,5.57
2016-12-23T04:05:13.992Z,5.58
2016-12-23T04:06:13.982Z,5.54
2016-12-23T04:07:13.973Z,5.57
2016-12-23T04:08:13.956Z,5.56
2016-12-23T04:09:13.944Z,5.6
2016-12-23T04:10:13.955Z,5.63
2016-12-23T04:11:14.224Z,5.67
2016-12-23T04:12:13.910Z,5.72
2016-12-23T04:13:13.899Z,5.54
2016-12-23T04:14:13.887Z,5.57
2016-12-23T04:15:13.875Z,5.53
2016-12-23T04:16:13.862Z,5.68
2016-12-23T04:17:13.859Z,5.54
2016-12-23T04:18:13.838Z,5.53
2016-12-23T04:19:13.830Z,5.54
2016-12-23T04:20:13.819Z,5.58
2016-12-23T04:21:13.803Z,5.61
2016-12-23T04:22:13.792Z,5.57
2016-12-23T04:23:13.779Z,5.54
2016-12-23T04:24:13.766Z,5.56
2016-12-23T04:25:13.754Z,5.54
2016-12-23T04:26:13.745Z,5.54
2016-12-23T04:27:13.735Z,5.58
2016-12-23T04:28:13.723Z,5.58
2016-12-23T04:29:13.707Z,5.56
2016-12-23T04:30:13.699Z,5.57
2016-12-23T04:31:13.685Z,5.61
2016-12-23T04:32:13.673Z,5.63
2016-12-23T04:33:13.661Z,5.56
2016-12-23T04:34:13.651Z,5.56
2016-12-23T04:35:13.639Z,5.58
2016-12-23T04:36:13.625Z,5.58
2016-12-23T04:37:13.615Z,5.56
2016-12-23T04:38:13.599Z,5.57
2016-12-23T04:39:13.590Z,5.57
2016-12-23T04:40:13.578Z,5.53
2016-12-23T04:41:13.567Z,5.53
2016-12-23T04:42:13.554Z,5.42
2016-12-23T04:43:13.542Z,5.56
2016-12-23T04:44:13.529Z,5.56
2016-12-23T04:45:13.519Z,5.45
2016-12-23T04:46:13.503Z,5.48
2016-12-23T04:47:13.499Z,5.46
2016-12-23T04:48:13.482Z,5.53
2016-12-23T04:49:13.469Z,5.49
2016-12-23T04:50:13.456Z,5.58
2016-12-23T04:51:13.448Z,5.46
2016-12-23T04:52:13.432Z,5.43
2016-12-23T04:53:13.420Z,5.45
2016-12-23T04:54:13.413Z,5.49
2016-12-23T04:55:13.397Z,5.57
2016-12-23T04:56:13.388Z,5.45
2016-12-23T04:57:13.373Z,5.53
2016-12-23T04:58:13.370Z,5.49
2016-12-23T04:59:13.349Z,5.49
2016-12-23T05:00:13.339Z,5.49
2016-12-23T05:01:13.327Z,5.39
2016-12-23T05:02:13.313Z,5.48
2016-12-23T05:03:13.301Z,5.45
2016-12-23T05:04:13.287Z,5.42
2016-12-23T05:05:13.278Z,5.4
2016-12-23T05:06:13.267Z,5.36
2016-12-23T05:07:13.253Z,5.35
2016-12-23T05:08:13.247Z,5.36
2016-12-23T05:09:13.230Z,5.39
2016-12-23T05:10:13.218Z,5.39
2016-12-23T05:11:13.208Z,5.48
2016-12-23T05:12:13.193Z,5.48
2016-12-23T05:13:13.181Z,5.49
2016-12-23T05:14:13.171Z,5.43
2016-12-23T05:15:13.156Z,5.48
2016-12-23T05:16:13.144Z,5.42
2016-12-23T05:17:13.136Z,5.39
2016-12-23T05:18:13.122Z,5.31
2016-12-23T05:19:13.110Z,5.39
2016-12-23T05:20:13.097Z,5.39
2016-12-23T05:21:13.085Z,5.33
2016-12-23T05:22:13.074Z,5.3
2016-12-23T05:23:13.061Z,5.35
2016-12-23T05:24:13.062Z,5.31
2016-12-23T05:25:13.036Z,5.3
2016-12-23T05:26:13.025Z,5.33
2016-12-23T05:27:13.019Z,5.24
2016-12-23T05:28:13.001Z,5.22
2016-12-23T05:29:12.997Z,5.21
2016-12-23T05:30:12.979Z,5.24
2016-12-23T05:31:12.966Z,5.2
2016-12-23T05:32:12.960Z,5.12
2016-12-23T05:33:12.942Z,5.07
2016-12-23T05:34:12.929Z,5.13
2016-12-23T05:35:12.918Z,5.15
2016-12-23T05:36:12.909Z,5.02
2016-12-23T05:37:12.892Z,4.96
2016-12-23T05:38:12.880Z,4.84
2016-12-23T05:39:12.870Z,4.7
2016-12-23T05:40:12.855Z,4.75
2016-12-23T05:41:12.841Z,4.58
2016-12-23T05:42:12.830Z,4.47
2016-12-23T05:43:12.821Z,4.44
2016-12-23T05:44:12.807Z,4.27
2016-12-23T05:45:12.813Z,4.22
2016-12-23T05:46:12.783Z,4.14
2016-12-23T05:47:12.770Z,4.05
2016-12-23T05:48:12.757Z,4.05
2016-12-23T05:49:12.743Z,3.91
2016-12-23T05:50:12.731Z,3.87
2016-12-23T05:51:12.718Z,3.8
2016-12-23T05:52:12.710Z,3.76
2016-12-23T05:53:12.692Z,3.65
2016-12-23T05:54:12.684Z,3.6
2016-12-23T05:55:12.665Z,3.5
2016-12-23T05:56:12.653Z,3.43
2016-12-23T05:57:12.643Z,3.47
2016-12-23T05:58:12.931Z,3.39
2016-12-23T05:59:12.616Z,3.35
2016-12-23T06:00:12.603Z,3.36
2016-12-23T06:01:12.592Z,3.29
2016-12-23T06:02:12.575Z,3.28
2016-12-23T06:03:12.567Z,3.28
2016-12-23T06:04:12.549Z,3.2
2016-12-23T06:05:12.538Z,3.29
2016-12-23T06:06:12.521Z,3.31
2016-12-23T06:07:12.510Z,3.31
2016-12-23T06:08:12.501Z,3.33
2016-12-23T06:09:12.486Z,3.26
2016-12-23T06:10:12.785Z,3.33
2016-12-23T06:11:12.458Z,3.31
2016-12-23T06:12:12.478Z,3.45
2016-12-23T06:13:12.430Z,3.45
2016-12-23T06:14:12.416Z,3.48
2016-12-23T06:15:12.409Z,3.57
2016-12-23T06:16:12.391Z,3.52
2016-12-23T06:17:12.375Z,3.61
2016-12-23T06:18:12.365Z,3.66
2016-12-23T06:19:12.349Z,3.72
2016-12-23T06:20:12.339Z,3.75
2016-12-23T06:21:12.321Z,3.78
2016-12-23T06:22:12.309Z,3.7
2016-12-23T06:23:12.296Z,3.9
2016-12-23T06:24:12.284Z,3.96
2016-12-23T06:25:12.268Z,3.98
2016-12-23T06:26:12.260Z,3.96
2016-12-23T06:27:12.244Z,3.96
2016-12-23T06:28:12.230Z,3.97
2016-12-23T06:29:12.218Z,3.96
2016-12-23T06:30:12.206Z,3.96
2016-12-23T06:31:12.192Z,3.88
2016-12-23T06:32:12.177Z,3.88
2016-12-23T06:33:12.162Z,3.79
2016-12-23T06:34:12.159Z,3.72
2016-12-23T06:35:12.156Z,3.72
2016-12-23T06:36:12.125Z,3.7
2016-12-23T06:37:12.111Z,3.66
2016-12-23T06:38:12.109Z,3.66
2016-12-23T06:39:12.086Z,3.65
2016-12-23T06:40:12.071Z,3.51
2016-12-23T06:41:12.060Z,3.57
2016-12-23T06:42:12.046Z,3.57
2016-12-23T06:43:12.034Z,3.47
2016-12-23T06:44:12.020Z,3.33
2016-12-23T06:45:12.010Z,3.43
2016-12-23T06:46:11.995Z,3.31
2016-12-23T06:47:11.983Z,3.33
2016-12-23T06:48:11.965Z,3.28
2016-12-23T06:49:11.954Z,3.4
2016-12-23T06:50:11.941Z,3.26
2016-12-23T06:51:11.924Z,3.23
2016-12-23T06:52:11.911Z,3.2
2016-12-23T06:53:11.898Z,3.18
2016-12-23T06:54:11.886Z,3.18
2016-12-23T06:55:11.871Z,3.08
2016-12-23T06:56:11.860Z,3.1
2016-12-23T06:57:11.844Z,3.05
2016-12-23T06:58:11.839Z,2.99
2016-12-23T06:59:11.817Z,2.99
2016-12-23T07:00:11.808Z,2.97
2016-12-23T07:01:11.798Z,2.9
2016-12-23T07:02:11.780Z,2.85
2016-12-23T07:03:11.767Z,2.85
2016-12-23T07:04:11.752Z,2.79
2016-12-23T07:05:11.735Z,2.89
2016-12-23T07:06:11.722Z,2.82
2016-12-23T07:07:11.716Z,2.69
2016-12-23T07:08:11.694Z,2.78
2016-12-23T07:09:11.689Z,2.67
2016-12-23T07:10:11.668Z,2.64
2016-12-23T07:11:11.654Z,2.67
2016-12-23T07:12:11.640Z,2.72
2016-12-23T07:13:11.629Z,2.61
2016-12-23T07:14:11.613Z,2.61
2016-12-23T07:15:11.598Z,2.59
2016-12-23T07:16:11.584Z,2.61
2016-12-23T07:17:11.875Z,2.57
2016-12-23T07:18:11.560Z,2.56
2016-12-23T07:19:11.542Z,2.52
2016-12-23T07:20:11.550Z,2.61
2016-12-23T07:21:11.520Z,2.61
2016-12-23T07:22:11.503Z,2.59
2016-12-23T07:23:11.485Z,2.61
2016-12-23T07:24:11.474Z,2.66
2016-12-23T07:25:11.458Z,2.63
2016-12-23T07:26:11.447Z,2.71
2016-12-23T07:27:11.435Z,2.67
2016-12-23T07:28:11.442Z,2.75
2016-12-23T07:29:11.406Z,2.72
2016-12-23T07:30:11.390Z,2.79
2016-12-23T07:31:11.377Z,2.79
2016-12-23T07:32:11.366Z,2.84
2016-12-23T07:33:11.348Z,2.78
2016-12-23T07:34:11.335Z,2.87
2016-12-23T07:35:11.348Z,2.85
2016-12-23T07:36:11.306Z,2.82
2016-12-23T07:37:11.294Z,2.85
2016-12-23T07:38:11.282Z,2.81
2016-12-23T07:39:11.267Z,2.81
2016-12-23T07:40:11.250Z,2.82
2016-12-23T07:41:11.238Z,2.79
2016-12-23T07:42:11.225Z,2.89
2016-12-23T07:43:11.213Z,2.82
2016-12-23T07:44:11.202Z,2.85
2016-12-23T07:45:11.183Z,2.92
2016-12-23T07:46:11.171Z,2.99
2016-12-23T07:47:11.156Z,2.99
2016-12-23T07:48:11.142Z,3.1
2016-12-23T07:49:11.131Z,3.06
2016-12-23T07:50:11.115Z,3.17
2016-12-23T07:51:11.107Z,3.21
2016-12-23T07:52:11.089Z,3.18
2016-12-23T07:53:11.078Z,3.36
2016-12-23T07:54:11.060Z,3.31
2016-12-23T07:55:11.048Z,3.4
2016-12-23T07:56:11.033Z,3.48
2016-12-23T07:57:11.023Z,3.54
2016-12-23T07:58:11.008Z,3.62
2016-12-23T07:59:10.992Z,3.69
2016-12-23T08:00:10.980Z,3.66
2016-12-23T08:01:10.966Z,3.84
2016-12-23T08:02:10.950Z,3.9
2016-12-23T08:03:10.939Z,3.79
2016-12-23T08:04:10.927Z,3.97
2016-12-23T08:05:10.912Z,4.05
2016-12-23T08:06:10.907Z,4.05
2016-12-23T08:07:10.887Z,4.09
2016-12-23T08:08:10.872Z,4.11
2016-12-23T08:09:10.869Z,4.15
2016-12-23T08:10:10.846Z,4.18
2016-12-23T08:11:10.836Z,4.27
2016-12-23T08:12:10.822Z,4.36
2016-12-23T08:13:10.808Z,4.4
2016-12-23T08:14:10.794Z,4.44
2016-12-23T08:15:10.781Z,4.48
2016-12-23T08:16:11.077Z,4.5
2016-12-23T08:17:10.760Z,4.51
2016-12-23T08:18:10.744Z,4.6
2016-12-23T08:19:10.731Z,4.65
2016-12-23T08:20:10.720Z,4.69
2016-12-23T08:21:10.705Z,4.63
2016-12-23T08:22:10.693Z,4.66
2016-12-23T08:23:10.681Z,4.7
2016-12-23T08:24:10.666Z,4.75
2016-12-23T08:25:10.654Z,4.78
2016-12-23T08:26:10.642Z,4.8
2016-12-23T08:27:10.627Z,4.82
2016-12-23T08:28:10.620Z,4.78
2016-12-23T08:29:10.907Z,4.94
2016-12-23T08:30:10.590Z,4.89
2016-12-23T08:31:10.578Z,4.94
2016-12-23T08:32:10.565Z,4.91
2016-12-23T08:33:10.555Z,4.91
2016-12-23T08:34:10.540Z,4.89
2016-12-23T08:35:10.527Z,4.94
2016-12-23T08:36:10.516Z,4.94
2016-12-23T08:37:10.502Z,5.04
2016-12-23T08:38:10.492Z,5.04
2016-12-23T08:39:10.482Z,5.02
2016-12-23T08:40:10.466Z,5.18
2016-12-23T08:41:10.452Z,5.09
2016-12-23T08:42:10.441Z,5.15
2016-12-23T08:43:10.431Z,5.25
2016-12-23T08:44:10.421Z,5.22
2016-12-23T08:45:10.408Z,5.2
2016-12-23T08:46:10.395Z,5.24
2016-12-23T08:47:10.684Z,5.28
2016-12-23T08:48:10.372Z,5.25
2016-12-23T08:49:10.357Z,5.22
2016-12-23T08:50:10.348Z,5.28
2016-12-23T08:51:10.331Z,5.33
2016-12-23T08:52:10.339Z,5.35
2016-12-23T08:53:10.307Z,5.48
2016-12-23T08:54:10.295Z,5.46
2016-12-23T08:55:10.282Z,5.49
2016-12-23T08:56:10.274Z,5.53
2016-12-23T08:57:10.264Z,5.48
2016-12-23T08:58:10.249Z,5.56
2016-12-23T08:59:10.541Z,5.54
2016-12-23T09:00:10.227Z,5.63
2016-12-23T09:01:10.215Z,5.64
2016-12-23T09:02:10.204Z,5.54
2016-12-23T09:03:10.190Z,5.68
2016-12-23T09:04:10.185Z,5.64
2016-12-23T09:05:10.477Z,5.74
2016-12-23T09:06:10.153Z,5.75
2016-12-23T09:07:10.148Z,5.81
2016-12-23T09:08:10.130Z,5.81
2016-12-23T09:09:10.117Z,5.74
2016-12-23T09:10:10.106Z,5.81
2016-12-23T09:11:10.099Z,5.75
2016-12-23T09:12:10.085Z,5.83
2016-12-23T09:13:10.076Z,5.82
2016-12-23T09:14:10.059Z,5.74
2016-12-23T09:15:10.053Z,5.83
2016-12-23T09:16:10.038Z,5.83
2016-12-23T09:17:10.329Z,5.82
2016-12-23T09:18:10.013Z,5.85
2016-12-23T09:19:10.007Z,5.83
2016-12-23T09:20:09.990Z,5.81
2016-12-23T09:21:09.985Z,5.81
2016-12-23T09:22:09.976Z,5.91
2016-12-23T09:23:09.954Z,5.9
2016-12-23T09:24:09.949Z,5.99
2016-12-23T09:25:09.936Z,6.06
2016-12-23T09:26:09.921Z,6.04
2016-12-23T09:27:09.911Z,6.06
2016-12-23T09:28:09.901Z,6.12
2016-12-23T09:29:09.891Z,6.22
2016-12-23T09:30:09.877Z,6.3
2016-12-23T09:31:09.867Z,6.27
2016-12-23T09:32:09.857Z,6.33
2016-12-23T09:33:10.146Z,6.3
2016-12-23T09:34:09.831Z,6.37
2016-12-23T09:35:10.124Z,6.36
2016-12-23T09:36:09.811Z,6.28
2016-12-23T09:37:09.799Z,6.43
2016-12-23T09:38:09.788Z,6.46
2016-12-23T09:39:09.777Z,6.52
2016-12-23T09:40:09.764Z,6.51
2016-12-23T09:41:09.753Z,6.54
2016-12-23T09:42:09.744Z,6.64
2016-12-23T09:43:09.729Z,6.66
2016-12-23T09:44:09.725Z,6.66
2016-12-23T09:45:10.015Z,6.77
2016-12-23T09:46:09.698Z,6.71
2016-12-23T09:47:09.689Z,6.85
2016-12-23T09:48:09.677Z,6.88
2016-12-23T09:49:09.672Z,6.81
2016-12-23T09:50:09.655Z,6.8
2016-12-23T09:51:09.646Z,6.87
2016-12-23T09:52:09.636Z,6.79
2016-12-23T09:53:09.623Z,6.77
2016-12-23T09:54:09.615Z,6.8
2016-12-23T09:55:09.601Z,6.8
2016-12-23T09:56:09.588Z,6.85
2016-12-23T09:57:09.578Z,6.88
2016-12-23T09:58:09.570Z,6.81
2016-12-23T09:59:09.577Z,6.85
2016-12-23T10:00:09.548Z,6.91
2016-12-23T10:01:09.536Z,6.79
2016-12-23T10:02:09.525Z,6.95
2016-12-23T10:03:09.517Z,6.94
2016-12-23T10:04:09.507Z,6.94
2016-12-23T10:05:09.800Z,6.89
2016-12-23T10:06:09.495Z,6.99
2016-12-23T10:07:09.471Z,6.84
2016-12-23T10:08:09.461Z,6.97
2016-12-23T10:09:09.454Z,6.95
2016-12-23T10:10:09.440Z,6.94
2016-12-23T10:11:09.430Z,7.12
2016-12-23T10:12:09.420Z,7.03
2016-12-23T10:13:09.408Z,7.09
2016-12-23T10:14:09.397Z,7.16
2016-12-23T10:15:09.386Z,7.07
2016-12-23T10:16:09.380Z,7.17
2016-12-23T10:17:09.366Z,7.16
2016-12-23T10:18:09.357Z,7.1
2016-12-23T10:19:09.344Z,7.13
2016-12-23T10:20:09.338Z,7.13
2016-12-23T10:21:09.325Z,7.17
2016-12-23T10:22:09.314Z,7.21
2016-12-23T10:23:09.305Z,7.25
2016-12-23T10:24:09.292Z,7.21
2016-12-23T10:25:09.281Z,7.17
2016-12-23T10:26:09.272Z,7.21
2016-12-23T10:27:09.263Z,7.03
2016-12-23T10:28:09.249Z,7.07
2016-12-23T10:29:09.240Z,7.12
2016-12-23T10:30:09.230Z,6.99
2016-12-23T10:31:09.523Z,7.05
2016-12-23T10:32:09.211Z,7.09
2016-12-23T10:33:09.199Z,7.17
2016-12-23T10:34:09.188Z,7.09
2016-12-23T10:35:09.177Z,7.21
2016-12-23T10:36:09.169Z,7.1
2016-12-23T10:37:09.155Z,7.13
2016-12-23T10:38:09.145Z,7.03
2016-12-23T10:39:09.137Z,7.07
2016-12-23T10:40:09.126Z,7.06
2016-12-23T10:41:09.113Z,7.12
2016-12-23T10:42:09.103Z,7.07
2016-12-23T10:43:09.096Z,7.15
2016-12-23T10:44:09.083Z,7.1
2016-12-23T10:45:09.076Z,7.07
2016-12-23T10:46:09.364Z,7.1
2016-12-23T10:47:09.053Z,7.1
2016-12-23T10:48:09.046Z,7.06
2016-12-23T10:49:09.029Z,6.99
2016-12-23T10:50:09.327Z,7.03
2016-12-23T10:51:09.009Z,7.09
2016-12-23T10:52:09.000Z,7.07
2016-12-23T10:53:08.990Z,7.07
2016-12-23T10:54:08.981Z,7.07
2016-12-23T10:55:08.975Z,7.05
2016-12-23T10:56:08.958Z,6.97
2016-12-23T10:57:08.949Z,7.07
2016-12-23T10:58:08.937Z,6.94
2016-12-23T10:59:08.926Z,6.98
2016-12-23T11:00:08.920Z,6.98
2016-12-23T11:01:09.243Z,6.97
2016-12-23T11:02:08.894Z,7.07
2016-12-23T11:03:08.885Z,7.16
2016-12-23T11:04:08.876Z,7.2
2016-12-23T11:05:08.867Z,7.06
2016-12-23T11:06:08.852Z,7.03
2016-12-23T11:07:08.844Z,7.09
2016-12-23T11:08:08.830Z,7.23
2016-12-23T11:09:08.821Z,7.12
2016-12-23T11:10:08.810Z,7.15
2016-12-23T11:11:09.103Z,7.17
2016-12-23T11:12:08.789Z,7.09
2016-12-23T11:13:08.781Z,7.06
2016-12-23T11:14:08.771Z,7.07
2016-12-23T11:15:08.761Z,7.13
2016-12-23T11:16:08.747Z,7.15
2016-12-23T11:17:08.743Z,7.15
2016-12-23T11:18:09.033Z,7.23
2016-12-23T11:19:08.715Z,7.28
2016-12-23T11:20:08.708Z,7.23
2016-12-23T11:21:08.701Z,7.15
2016-12-23T11:22:08.686Z,7.23
2016-12-23T11:23:08.688Z,7.27
2016-12-23T11:24:08.666Z,7.24
2016-12-23T11:25:08.667Z,7.27
2016-12-23T11:26:08.643Z,7.28
2016-12-23T11:27:08.641Z,7.25
2016-12-23T11:28:08.626Z,7.23
2016-12-23T11:29:08.618Z,7.23
2016-12-23T11:30:08.602Z,7.23
2016-12-23T11:31:08.619Z,7.23
2016-12-23T11:32:08.581Z,7.28
2016-12-23T11:33:08.570Z,7.3
2016-12-23T11:34:08.560Z,7.27
2016-12-23T11:35:08.576Z,7.31
2016-12-23T11:36:08.541Z,7.25
2016-12-23T11:37:08.530Z,7.28
2016-12-23T11:38:08.520Z,7.39
2016-12-23T11:39:08.508Z,7.4
2016-12-23T11:40:08.501Z,7.34
2016-12-23T11:41:08.489Z,7.43
2016-12-23T11:42:08.506Z,7.45
2016-12-23T11:43:08.467Z,7.45
2016-12-23T11:44:08.457Z,7.43
2016-12-23T11:45:08.446Z,7.43
2016-12-23T11:46:08.442Z,7.39
2016-12-23T11:47:08.426Z,7.43
2016-12-23T11:48:08.418Z,7.39
2016-12-23T11:49:08.409Z,7.42
2016-12-23T11:50:08.394Z,7.57
2016-12-23T11:51:08.384Z,7.49
2016-12-23T11:52:08.382Z,7.67
2016-12-23T11:53:08.669Z,7.48
2016-12-23T11:54:08.354Z,7.52
2016-12-23T11:55:08.346Z,7.57
2016-12-23T11:56:08.335Z,7.64
2016-12-23T11:57:08.322Z,7.64
2016-12-23T11:58:08.316Z,7.67
2016-12-23T11:59:08.610Z,7.68
2016-12-23T12:00:08.298Z,7.69
2016-12-23T12:01:08.588Z,7.71
2016-12-23T12:02:08.273Z,7.86
2016-12-23T12:03:08.266Z,7.74
2016-12-23T12:04:08.251Z,7.77
2016-12-23T12:05:08.246Z,7.86
2016-12-23T12:06:08.232Z,7.69
2016-12-23T12:07:08.228Z,7.72
2016-12-23T12:08:08.216Z,7.75
2016-12-23T12:09:08.203Z,7.75
2016-12-23T12:10:08.193Z,7.75
2016-12-23T12:11:08.183Z,7.82
2016-12-23T12:12:08.174Z,7.79
2016-12-23T12:13:08.162Z,7.89
2016-12-23T12:14:08.152Z,7.86
2016-12-23T12:15:08.141Z,7.9
2016-12-23T12:16:08.133Z,7.87
2016-12-23T12:17:08.429Z,7.87
2016-12-23T12:18:08.117Z,7.86
2016-12-23T12:19:08.101Z,7.83
2016-12-23T12:20:08.118Z,7.83
2016-12-23T12:21:08.383Z,7.87
2016-12-23T12:22:08.073Z,7.83
2016-12-23T12:23:08.065Z,7.86
2016-12-23T12:24:08.054Z,7.98
2016-12-23T12:25:08.045Z,7.95
2016-12-23T12:26:08.058Z,7.87
2016-12-23T12:27:08.022Z,7.98
2016-12-23T12:28:08.013Z,7.93
2016-12-23T12:29:08.005Z,7.83
2016-12-23T12:30:07.994Z,7.83
2016-12-23T12:31:07.983Z,7.85
2016-12-23T12:32:07.975Z,7.87
2016-12-23T12:33:07.967Z,7.97
2016-12-23T12:34:07.954Z,7.93
2016-12-23T12:35:07.948Z,7.95
2016-12-23T12:36:07.937Z,7.82
2016-12-23T12:37:07.923Z,8
2016-12-23T12:38:07.914Z,7.97
2016-12-23T12:39:07.904Z,7.93
2016-12-23T12:40:07.898Z,8
2016-12-23T12:41:07.886Z,8
2016-12-23T12:42:07.875Z,8.01
2016-12-23T12:43:07.873Z,8.02
2016-12-23T12:44:07.854Z,7.98
2016-12-23T12:45:07.846Z,8.01
2016-12-23T12:46:07.837Z,8.01
2016-12-23T12:47:07.828Z,8.02
2016-12-23T12:48:07.816Z,8.12
2016-12-23T12:49:07.806Z,8.19
2016-12-23T12:50:07.795Z,8.22
2016-12-23T12:51:08.093Z,8.16
2016-12-23T12:52:07.776Z,8.19
2016-12-23T12:53:07.765Z,8.19
2016-12-23T12:54:07.757Z,8.19
2016-12-23T12:55:07.752Z,8.16
2016-12-23T12:56:07.736Z,8.12
2016-12-23T12:57:07.727Z,8.07
2016-12-23T12:58:07.718Z,8.15
2016-12-23T12:59:08.011Z,8.2
2016-12-23T13:00:07.699Z,8.18
2016-12-23T13:01:07.695Z,8.12
2016-12-23T13:02:07.682Z,8.11
2016-12-23T13:03:07.668Z,8.16
2016-12-23T13:04:07.659Z,8.16
2016-12-23T13:05:07.648Z,8.15
2016-12-23T13:06:07.641Z,8.15
2016-12-23T13:07:07.631Z,8.18
2016-12-23T13:08:07.646Z,8.15
2016-12-23T13:09:07.613Z,8.18
2016-12-23T13:10:07.599Z,8.16
2016-12-23T13:11:07.590Z,8.12
2016-12-23T13:12:07.882Z,8.02
2016-12-23T13:13:07.569Z,8.04
2016-12-23T13:14:07.862Z,8.04
2016-12-23T13:15:07.550Z,8
2016-12-23T13:16:07.539Z,8.02
2016-12-23T13:17:07.529Z,8.05
2016-12-23T13:18:07.520Z,8.01
2016-12-23T13:19:07.509Z,8.04
2016-12-23T13:20:07.503Z,8.02
2016-12-23T13:21:07.490Z,8.04